sensor_id;sensor_type;location;lat;lon;timestamp;temperature;humidity
6948;DHT22;3513;47.664;9.162;2022-09-12T00:00:50;12.90;99.90
6948;DHT22;3513;47.664;9.162;2022-09-12T00:03:16;12.90;99.90
6948;DHT22;3513;47.664;9.162;2022-09-12T00:05:43;12.80;99.90
6948;DHT22;3513;47.664;9.162;2022-09-12T00:08:10;12.70;99.90
6948;DHT22;3513;47.664;9.162;2022-09-12T00:10:40;12.70;99.90
6948;DHT22;3513;47.664;9.162;2022-09-12T00:13:07;12.70;99.90
6948;DHT22;3513;47.664;9.162;2022-09-12T00:15:41;12.60;99.90
6948;DHT22;3513;47.664;9.162;2022-09-12T00:18:08;12.60;99.90
6948;DHT22;3513;47.664;9.162;2022-09-12T00:20:34;12.60;99.90
6948;DHT22;3513;47.664;9.162;2022-09-12T00:23:00;12.70;99.90
6948;DHT22;3513;47.664;9.162;2022-09-12T00:25:26;12.70;99.90
6948;DHT22;3513;47.664;9.162;2022-09-12T00:27:52;12.60;99.90
6948;DHT22;3513;47.664;9.162;2022-09-12T00:30:17;12.70;99.90
6948;DHT22;3513;47.664;9.162;2022-09-12T00:32:43;12.70;99.90
6948;DHT22;3513;47.664;9.162;2022-09-12T00:35:09;12.70;99.90
6948;DHT22;3513;47.664;9.162;2022-09-12T00:37:34;12.60;99.90
6948;DHT22;3513;47.664;9.162;2022-09-12T00:40:00;12.60;99.90
6948;DHT22;3513;47.664;9.162;2022-09-12T00:42:26;12.60;99.90
6948;DHT22;3513;47.664;9.162;2022-09-12T00:44:52;12.50;99.90
6948;DHT22;3513;47.664;9.162;2022-09-12T00:47:24;12.50;99.90
6948;DHT22;3513;47.664;9.162;2022-09-12T00:50:02;12.50;99.90
6948;DHT22;3513;47.664;9.162;2022-09-12T00:52:30;12.40;99.90
6948;DHT22;3513;47.664;9.162;2022-09-12T00:55:06;12.30;99.90
6948;DHT22;3513;47.664;9.162;2022-09-12T00:57:37;12.30;99.90
6948;DHT22;3513;47.664;9.162;2022-09-12T01:00:11;12.30;99.90
6948;DHT22;3513;47.664;9.162;2022-09-12T01:02:39;12.30;99.90
6948;DHT22;3513;47.664;9.162;2022-09-12T01:05:07;12.30;99.90
6948;DHT22;3513;47.664;9.162;2022-09-12T01:07:37;12.20;99.90
6948;DHT22;3513;47.664;9.162;2022-09-12T01:10:05;12.10;99.90
6948;DHT22;3513;47.664;9.162;2022-09-12T01:12:32;12.20;99.90
6948;DHT22;3513;47.664;9.162;2022-09-12T01:14:58;12.30;99.90
6948;DHT22;3513;47.664;9.162;2022-09-12T01:28:50;12.20;99.90
6948;DHT22;3513;47.664;9.162;2022-09-12T01:31:50;12.20;99.90
6948;DHT22;3513;47.664;9.162;2022-09-12T01:34:37;12.10;99.90
6948;DHT22;3513;47.664;9.162;2022-09-12T01:42:40;12.00;99.90
6948;DHT22;3513;47.664;9.162;2022-09-12T01:47:41;11.90;99.90
6948;DHT22;3513;47.664;9.162;2022-09-12T01:50:15;11.90;99.90
6948;DHT22;3513;47.664;9.162;2022-09-12T01:52:55;11.90;99.90
6948;DHT22;3513;47.664;9.162;2022-09-12T01:55:32;11.90;99.90
6948;DHT22;3513;47.664;9.162;2022-09-12T01:58:04;11.80;99.90
6948;DHT22;3513;47.664;9.162;2022-09-12T02:00:33;11.80;99.90
6948;DHT22;3513;47.664;9.162;2022-09-12T02:03:27;11.80;99.90
6948;DHT22;3513;47.664;9.162;2022-09-12T02:06:02;11.80;99.90
6948;DHT22;3513;47.664;9.162;2022-09-12T02:08:35;11.80;99.90
6948;DHT22;3513;47.664;9.162;2022-09-12T02:11:07;11.80;99.90
6948;DHT22;3513;47.664;9.162;2022-09-12T02:18:59;11.80;99.90
6948;DHT22;3513;47.664;9.162;2022-09-12T02:21:29;11.80;99.90
6948;DHT22;3513;47.664;9.162;2022-09-12T02:23:59;11.70;99.90
6948;DHT22;3513;47.664;9.162;2022-09-12T02:26:48;11.70;99.90
6948;DHT22;3513;47.664;9.162;2022-09-12T02:29:15;11.70;99.90
6948;DHT22;3513;47.664;9.162;2022-09-12T02:36:51;11.70;99.90
6948;DHT22;3513;47.664;9.162;2022-09-12T02:39:19;11.70;99.90
6948;DHT22;3513;47.664;9.162;2022-09-12T02:41:53;11.70;99.90
6948;DHT22;3513;47.664;9.162;2022-09-12T02:44:20;11.70;99.90
6948;DHT22;3513;47.664;9.162;2022-09-12T02:46:54;11.60;99.90
6948;DHT22;3513;47.664;9.162;2022-09-12T02:49:22;11.60;99.90
6948;DHT22;3513;47.664;9.162;2022-09-12T02:51:48;11.50;99.90
6948;DHT22;3513;47.664;9.162;2022-09-12T02:54:16;11.40;99.90
6948;DHT22;3513;47.664;9.162;2022-09-12T02:56:44;11.50;99.90
6948;DHT22;3513;47.664;9.162;2022-09-12T02:59:13;11.40;99.90
6948;DHT22;3513;47.664;9.162;2022-09-12T03:01:56;11.40;99.90
6948;DHT22;3513;47.664;9.162;2022-09-12T03:10:25;11.50;99.90
6948;DHT22;3513;47.664;9.162;2022-09-12T03:21:03;11.50;99.90
6948;DHT22;3513;47.664;9.162;2022-09-12T03:26:12;11.50;99.90
6948;DHT22;3513;47.664;9.162;2022-09-12T03:28:41;11.40;99.90
6948;DHT22;3513;47.664;9.162;2022-09-12T03:31:16;11.40;99.90
6948;DHT22;3513;47.664;9.162;2022-09-12T03:33:42;11.30;99.90
6948;DHT22;3513;47.664;9.162;2022-09-12T03:36:21;11.30;99.90
6948;DHT22;3513;47.664;9.162;2022-09-12T03:38:48;11.30;99.90
6948;DHT22;3513;47.664;9.162;2022-09-12T03:41:14;11.30;99.90
6948;DHT22;3513;47.664;9.162;2022-09-12T03:43:39;11.30;99.90
6948;DHT22;3513;47.664;9.162;2022-09-12T03:46:05;11.20;99.90
6948;DHT22;3513;47.664;9.162;2022-09-12T03:48:31;11.30;99.90
6948;DHT22;3513;47.664;9.162;2022-09-12T03:51:05;11.40;99.90
6948;DHT22;3513;47.664;9.162;2022-09-12T03:53:31;11.40;99.90
6948;DHT22;3513;47.664;9.162;2022-09-12T03:55:57;11.40;99.90
6948;DHT22;3513;47.664;9.162;2022-09-12T03:58:23;11.40;99.90
6948;DHT22;3513;47.664;9.162;2022-09-12T04:00:49;11.40;99.90
6948;DHT22;3513;47.664;9.162;2022-09-12T04:03:15;11.40;99.90
6948;DHT22;3513;47.664;9.162;2022-09-12T04:05:40;11.50;99.90
6948;DHT22;3513;47.664;9.162;2022-09-12T04:08:06;11.40;99.90
6948;DHT22;3513;47.664;9.162;2022-09-12T04:10:32;11.30;99.90
6948;DHT22;3513;47.664;9.162;2022-09-12T04:12:57;11.30;99.90
6948;DHT22;3513;47.664;9.162;2022-09-12T04:15:23;11.30;99.90
6948;DHT22;3513;47.664;9.162;2022-09-12T04:17:48;11.30;99.90
6948;DHT22;3513;47.664;9.162;2022-09-12T04:20:14;11.30;99.90
6948;DHT22;3513;47.664;9.162;2022-09-12T04:22:40;11.20;99.90
6948;DHT22;3513;47.664;9.162;2022-09-12T04:25:06;11.20;99.90
6948;DHT22;3513;47.664;9.162;2022-09-12T04:27:32;11.20;99.90
6948;DHT22;3513;47.664;9.162;2022-09-12T04:29:59;11.20;99.90
6948;DHT22;3513;47.664;9.162;2022-09-12T04:32:25;11.30;99.90
6948;DHT22;3513;47.664;9.162;2022-09-12T04:34:51;11.40;99.90
6948;DHT22;3513;47.664;9.162;2022-09-12T04:37:17;11.40;99.90
6948;DHT22;3513;47.664;9.162;2022-09-12T04:39:42;11.50;99.90
6948;DHT22;3513;47.664;9.162;2022-09-12T04:42:08;11.70;99.90
6948;DHT22;3513;47.664;9.162;2022-09-12T04:44:34;11.70;99.90
6948;DHT22;3513;47.664;9.162;2022-09-12T04:46:59;11.80;99.90
6948;DHT22;3513;47.664;9.162;2022-09-12T04:49:25;11.90;99.90
6948;DHT22;3513;47.664;9.162;2022-09-12T04:51:52;12.00;99.90
6948;DHT22;3513;47.664;9.162;2022-09-12T04:54:18;12.00;99.90
6948;DHT22;3513;47.664;9.162;2022-09-12T04:56:46;12.00;99.90
6948;DHT22;3513;47.664;9.162;2022-09-12T04:59:14;12.00;99.90
6948;DHT22;3513;47.664;9.162;2022-09-12T05:01:40;12.10;99.90
6948;DHT22;3513;47.664;9.162;2022-09-12T05:04:06;12.10;99.90
6948;DHT22;3513;47.664;9.162;2022-09-12T05:06:35;12.20;99.90
6948;DHT22;3513;47.664;9.162;2022-09-12T05:09:03;12.30;99.90
6948;DHT22;3513;47.664;9.162;2022-09-12T05:11:32;12.30;99.90
6948;DHT22;3513;47.664;9.162;2022-09-12T05:13:58;12.40;99.90
6948;DHT22;3513;47.664;9.162;2022-09-12T05:18:55;12.50;99.90
6948;DHT22;3513;47.664;9.162;2022-09-12T05:21:24;12.50;99.90
6948;DHT22;3513;47.664;9.162;2022-09-12T05:23:55;12.60;99.90
6948;DHT22;3513;47.664;9.162;2022-09-12T05:26:22;12.60;99.90
6948;DHT22;3513;47.664;9.162;2022-09-12T05:28:49;12.70;99.90
6948;DHT22;3513;47.664;9.162;2022-09-12T05:31:16;12.80;99.90
6948;DHT22;3513;47.664;9.162;2022-09-12T05:33:44;12.80;99.90
6948;DHT22;3513;47.664;9.162;2022-09-12T05:36:13;12.90;99.90
6948;DHT22;3513;47.664;9.162;2022-09-12T05:38:39;13.00;99.90
6948;DHT22;3513;47.664;9.162;2022-09-12T05:41:09;13.10;99.90
6948;DHT22;3513;47.664;9.162;2022-09-12T05:43:37;13.00;99.90
6948;DHT22;3513;47.664;9.162;2022-09-12T05:46:07;13.20;99.90
6948;DHT22;3513;47.664;9.162;2022-09-12T05:48:34;13.20;99.90
6948;DHT22;3513;47.664;9.162;2022-09-12T05:51:02;13.10;99.90
6948;DHT22;3513;47.664;9.162;2022-09-12T05:53:29;13.20;99.90
6948;DHT22;3513;47.664;9.162;2022-09-12T05:56:07;13.20;99.90
6948;DHT22;3513;47.664;9.162;2022-09-12T05:58:38;13.10;99.90
6948;DHT22;3513;47.664;9.162;2022-09-12T06:01:06;13.10;99.90
6948;DHT22;3513;47.664;9.162;2022-09-12T06:03:34;13.10;99.90
6948;DHT22;3513;47.664;9.162;2022-09-12T06:06:06;13.10;99.90
6948;DHT22;3513;47.664;9.162;2022-09-12T06:08:33;13.10;99.90
6948;DHT22;3513;47.664;9.162;2022-09-12T06:11:01;13.20;99.90
6948;DHT22;3513;47.664;9.162;2022-09-12T06:13:27;13.20;99.90
6948;DHT22;3513;47.664;9.162;2022-09-12T06:15:52;13.20;99.90
6948;DHT22;3513;47.664;9.162;2022-09-12T06:18:19;13.30;99.90
6948;DHT22;3513;47.664;9.162;2022-09-12T06:20:45;13.40;99.90
6948;DHT22;3513;47.664;9.162;2022-09-12T06:23:11;13.60;99.90
6948;DHT22;3513;47.664;9.162;2022-09-12T06:25:37;13.60;99.90
6948;DHT22;3513;47.664;9.162;2022-09-12T06:28:03;13.70;99.90
6948;DHT22;3513;47.664;9.162;2022-09-12T06:30:28;13.80;99.90
6948;DHT22;3513;47.664;9.162;2022-09-12T06:32:54;13.90;99.90
6948;DHT22;3513;47.664;9.162;2022-09-12T06:35:21;14.00;99.90
6948;DHT22;3513;47.664;9.162;2022-09-12T06:37:48;14.10;99.90
6948;DHT22;3513;47.664;9.162;2022-09-12T06:40:13;14.10;99.90
6948;DHT22;3513;47.664;9.162;2022-09-12T06:42:39;14.30;99.90
6948;DHT22;3513;47.664;9.162;2022-09-12T06:45:05;14.30;99.90
6948;DHT22;3513;47.664;9.162;2022-09-12T06:47:31;14.20;99.90
6948;DHT22;3513;47.664;9.162;2022-09-12T06:49:57;14.20;99.90
6948;DHT22;3513;47.664;9.162;2022-09-12T06:52:23;14.20;99.90
6948;DHT22;3513;47.664;9.162;2022-09-12T06:54:49;14.20;99.90
6948;DHT22;3513;47.664;9.162;2022-09-12T06:57:14;14.30;99.90
6948;DHT22;3513;47.664;9.162;2022-09-12T06:59:40;14.30;99.90
6948;DHT22;3513;47.664;9.162;2022-09-12T07:02:05;14.40;99.90
6948;DHT22;3513;47.664;9.162;2022-09-12T07:04:31;14.40;99.90
6948;DHT22;3513;47.664;9.162;2022-09-12T07:06:59;14.50;99.90
6948;DHT22;3513;47.664;9.162;2022-09-12T07:09:25;14.60;99.90
6948;DHT22;3513;47.664;9.162;2022-09-12T07:11:51;14.60;99.90
6948;DHT22;3513;47.664;9.162;2022-09-12T07:14:16;14.60;99.90
6948;DHT22;3513;47.664;9.162;2022-09-12T07:16:42;14.60;99.90
6948;DHT22;3513;47.664;9.162;2022-09-12T07:19:09;14.60;99.90
6948;DHT22;3513;47.664;9.162;2022-09-12T07:21:35;14.60;99.90
6948;DHT22;3513;47.664;9.162;2022-09-12T07:24:04;14.70;99.90
6948;DHT22;3513;47.664;9.162;2022-09-12T07:26:30;14.80;99.90
6948;DHT22;3513;47.664;9.162;2022-09-12T07:28:57;14.90;99.90
6948;DHT22;3513;47.664;9.162;2022-09-12T07:31:25;14.90;99.90
6948;DHT22;3513;47.664;9.162;2022-09-12T07:33:51;14.90;99.90
6948;DHT22;3513;47.664;9.162;2022-09-12T07:36:20;15.00;99.90
6948;DHT22;3513;47.664;9.162;2022-09-12T07:38:47;15.10;99.90
6948;DHT22;3513;47.664;9.162;2022-09-12T07:41:21;15.10;99.90
6948;DHT22;3513;47.664;9.162;2022-09-12T07:43:51;15.20;99.90
6948;DHT22;3513;47.664;9.162;2022-09-12T07:46:17;15.30;99.90
6948;DHT22;3513;47.664;9.162;2022-09-12T07:48:43;15.30;99.90
6948;DHT22;3513;47.664;9.162;2022-09-12T07:51:10;15.50;99.90
6948;DHT22;3513;47.664;9.162;2022-09-12T07:53:40;15.50;99.90
6948;DHT22;3513;47.664;9.162;2022-09-12T07:56:08;15.70;99.90
6948;DHT22;3513;47.664;9.162;2022-09-12T07:58:35;15.70;99.90
6948;DHT22;3513;47.664;9.162;2022-09-12T08:01:16;15.80;99.90
6948;DHT22;3513;47.664;9.162;2022-09-12T08:03:43;15.90;99.90
6948;DHT22;3513;47.664;9.162;2022-09-12T08:06:12;15.90;99.90
6948;DHT22;3513;47.664;9.162;2022-09-12T08:08:38;16.10;99.90
6948;DHT22;3513;47.664;9.162;2022-09-12T08:11:09;16.10;99.90
6948;DHT22;3513;47.664;9.162;2022-09-12T08:13:37;16.10;99.90
6948;DHT22;3513;47.664;9.162;2022-09-12T08:16:11;16.30;99.90
6948;DHT22;3513;47.664;9.162;2022-09-12T08:18:37;16.30;99.90
6948;DHT22;3513;47.664;9.162;2022-09-12T08:21:05;16.30;99.90
6948;DHT22;3513;47.664;9.162;2022-09-12T08:23:31;16.30;99.90
6948;DHT22;3513;47.664;9.162;2022-09-12T08:25:59;16.40;99.90
6948;DHT22;3513;47.664;9.162;2022-09-12T08:28:26;16.50;99.90
6948;DHT22;3513;47.664;9.162;2022-09-12T08:30:52;16.70;99.90
6948;DHT22;3513;47.664;9.162;2022-09-12T08:33:19;16.70;99.90
6948;DHT22;3513;47.664;9.162;2022-09-12T08:35:44;16.80;99.90
6948;DHT22;3513;47.664;9.162;2022-09-12T08:38:11;16.90;99.90
6948;DHT22;3513;47.664;9.162;2022-09-12T08:40:57;16.90;99.90
6948;DHT22;3513;47.664;9.162;2022-09-12T08:46:09;17.10;99.90
6948;DHT22;3513;47.664;9.162;2022-09-12T08:48:39;17.30;99.90
6948;DHT22;3513;47.664;9.162;2022-09-12T08:51:09;17.50;99.90
6948;DHT22;3513;47.664;9.162;2022-09-12T08:53:36;17.60;99.90
6948;DHT22;3513;47.664;9.162;2022-09-12T08:56:04;17.70;99.90
6948;DHT22;3513;47.664;9.162;2022-09-12T08:58:36;17.80;99.90
6948;DHT22;3513;47.664;9.162;2022-09-12T09:01:35;17.80;99.90
6948;DHT22;3513;47.664;9.162;2022-09-12T09:17:31;18.00;99.90
6948;DHT22;3513;47.664;9.162;2022-09-12T09:20:37;18.00;99.90
6948;DHT22;3513;47.664;9.162;2022-09-12T09:25:35;18.10;99.90
6948;DHT22;3513;47.664;9.162;2022-09-12T09:28:12;18.10;99.90
6948;DHT22;3513;47.664;9.162;2022-09-12T09:30:39;18.20;99.90
6948;DHT22;3513;47.664;9.162;2022-09-12T09:33:17;18.30;99.90
6948;DHT22;3513;47.664;9.162;2022-09-12T09:35:46;18.30;99.90
6948;DHT22;3513;47.664;9.162;2022-09-12T09:38:35;18.40;99.90
6948;DHT22;3513;47.664;9.162;2022-09-12T09:41:26;18.60;99.90
6948;DHT22;3513;47.664;9.162;2022-09-12T09:43:55;18.70;99.90
6948;DHT22;3513;47.664;9.162;2022-09-12T09:46:22;18.70;99.40
6948;DHT22;3513;47.664;9.162;2022-09-12T09:48:48;18.70;99.10
6948;DHT22;3513;47.664;9.162;2022-09-12T09:51:19;18.80;98.80
6948;DHT22;3513;47.664;9.162;2022-09-12T09:53:57;18.90;98.70
6948;DHT22;3513;47.664;9.162;2022-09-12T09:57:00;18.90;98.50
6948;DHT22;3513;47.664;9.162;2022-09-12T09:59:30;18.90;98.30
6948;DHT22;3513;47.664;9.162;2022-09-12T10:02:00;19.10;98.60
6948;DHT22;3513;47.664;9.162;2022-09-12T10:04:35;19.20;98.20
6948;DHT22;3513;47.664;9.162;2022-09-12T10:07:03;19.20;97.60
6948;DHT22;3513;47.664;9.162;2022-09-12T10:09:31;19.30;97.10
6948;DHT22;3513;47.664;9.162;2022-09-12T10:11:59;19.40;97.60
6948;DHT22;3513;47.664;9.162;2022-09-12T10:17:01;19.50;97.10
6948;DHT22;3513;47.664;9.162;2022-09-12T10:19:38;19.60;96.70
6948;DHT22;3513;47.664;9.162;2022-09-12T10:22:15;19.70;96.70
6948;DHT22;3513;47.664;9.162;2022-09-12T10:24:47;19.80;96.50
6948;DHT22;3513;47.664;9.162;2022-09-12T10:27:15;19.80;96.10
6948;DHT22;3513;47.664;9.162;2022-09-12T10:32:11;19.90;95.90
6948;DHT22;3513;47.664;9.162;2022-09-12T10:34:41;20.00;96.10
6948;DHT22;3513;47.664;9.162;2022-09-12T10:37:22;20.10;95.70
6948;DHT22;3513;47.664;9.162;2022-09-12T10:39:56;20.20;95.30
6948;DHT22;3513;47.664;9.162;2022-09-12T10:45:30;20.30;95.00
6948;DHT22;3513;47.664;9.162;2022-09-12T10:48:01;20.40;94.70
6948;DHT22;3513;47.664;9.162;2022-09-12T10:50:41;20.50;94.60
6948;DHT22;3513;47.664;9.162;2022-09-12T10:58:35;20.80;94.40
6948;DHT22;3513;47.664;9.162;2022-09-12T11:04:31;21.10;93.60
6948;DHT22;3513;47.664;9.162;2022-09-12T11:12:41;21.30;93.10
6948;DHT22;3513;47.664;9.162;2022-09-12T11:15:35;21.40;92.80
6948;DHT22;3513;47.664;9.162;2022-09-12T11:23:56;21.60;92.80
6948;DHT22;3513;47.664;9.162;2022-09-12T11:37:33;22.00;91.80
6948;DHT22;3513;47.664;9.162;2022-09-12T11:40:26;22.00;91.10
6948;DHT22;3513;47.664;9.162;2022-09-12T11:43:02;22.00;91.50
6948;DHT22;3513;47.664;9.162;2022-09-12T11:45:35;22.10;91.40
6948;DHT22;3513;47.664;9.162;2022-09-12T11:48:10;22.10;91.00
6948;DHT22;3513;47.664;9.162;2022-09-12T11:50:37;22.10;91.70
6948;DHT22;3513;47.664;9.162;2022-09-12T11:53:25;22.10;91.40
6948;DHT22;3513;47.664;9.162;2022-09-12T11:56:06;22.20;91.30
6948;DHT22;3513;47.664;9.162;2022-09-12T11:58:34;22.30;91.30
6948;DHT22;3513;47.664;9.162;2022-09-12T12:01:14;22.50;90.90
6948;DHT22;3513;47.664;9.162;2022-09-12T12:03:44;22.60;90.80
6948;DHT22;3513;47.664;9.162;2022-09-12T12:06:27;22.70;90.70
6948;DHT22;3513;47.664;9.162;2022-09-12T12:08:54;22.80;89.10
6948;DHT22;3513;47.664;9.162;2022-09-12T12:11:34;22.90;90.40
6948;DHT22;3513;47.664;9.162;2022-09-12T12:14:06;23.00;90.40
6948;DHT22;3513;47.664;9.162;2022-09-12T12:16:37;23.20;90.30
6948;DHT22;3513;47.664;9.162;2022-09-12T12:21:40;23.40;88.90
6948;DHT22;3513;47.664;9.162;2022-09-12T12:34:35;23.90;88.20
6948;DHT22;3513;47.664;9.162;2022-09-12T12:47:48;25.00;81.90
6948;DHT22;3513;47.664;9.162;2022-09-12T12:52:53;25.60;77.60
6948;DHT22;3513;47.664;9.162;2022-09-12T12:55:23;25.90;76.20
6948;DHT22;3513;47.664;9.162;2022-09-12T12:57:54;26.30;75.70
6948;DHT22;3513;47.664;9.162;2022-09-12T13:03:06;26.80;72.20
6948;DHT22;3513;47.664;9.162;2022-09-12T13:05:49;27.10;71.20
6948;DHT22;3513;47.664;9.162;2022-09-12T13:10:51;27.50;69.60
6948;DHT22;3513;47.664;9.162;2022-09-12T13:16:10;28.10;67.80
6948;DHT22;3513;47.664;9.162;2022-09-12T13:18:43;28.40;65.70
6948;DHT22;3513;47.664;9.162;2022-09-12T13:21:18;28.80;64.10
6948;DHT22;3513;47.664;9.162;2022-09-12T13:23:57;29.10;62.30
6948;DHT22;3513;47.664;9.162;2022-09-12T13:26:24;29.40;61.60
6948;DHT22;3513;47.664;9.162;2022-09-12T13:29:28;29.70;59.10
6948;DHT22;3513;47.664;9.162;2022-09-12T13:31:56;29.90;58.40
6948;DHT22;3513;47.664;9.162;2022-09-12T13:34:29;30.10;57.80
6948;DHT22;3513;47.664;9.162;2022-09-12T13:42:41;30.70;55.10
6948;DHT22;3513;47.664;9.162;2022-09-12T13:47:44;31.40;52.40
6948;DHT22;3513;47.664;9.162;2022-09-12T13:50:27;31.80;50.60
6948;DHT22;3513;47.664;9.162;2022-09-12T13:52:58;32.10;49.30
6948;DHT22;3513;47.664;9.162;2022-09-12T13:55:28;32.40;46.50
6948;DHT22;3513;47.664;9.162;2022-09-12T13:57:58;32.60;45.10
6948;DHT22;3513;47.664;9.162;2022-09-12T14:00:24;32.80;45.20
6948;DHT22;3513;47.664;9.162;2022-09-12T14:02:49;33.10;42.90
6948;DHT22;3513;47.664;9.162;2022-09-12T14:05:37;33.20;42.30
6948;DHT22;3513;47.664;9.162;2022-09-12T14:08:06;33.40;41.40
6948;DHT22;3513;47.664;9.162;2022-09-12T14:10:41;33.70;41.70
6948;DHT22;3513;47.664;9.162;2022-09-12T14:13:17;33.90;40.70
6948;DHT22;3513;47.664;9.162;2022-09-12T14:15:46;34.20;39.60
6948;DHT22;3513;47.664;9.162;2022-09-12T14:18:28;34.40;40.00
6948;DHT22;3513;47.664;9.162;2022-09-12T14:20:55;34.60;39.30
6948;DHT22;3513;47.664;9.162;2022-09-12T14:23:31;34.60;38.40
6948;DHT22;3513;47.664;9.162;2022-09-12T14:26:02;34.80;38.00
6948;DHT22;3513;47.664;9.162;2022-09-12T14:28:29;35.00;38.70
6948;DHT22;3513;47.664;9.162;2022-09-12T14:31:05;35.20;38.00
6948;DHT22;3513;47.664;9.162;2022-09-12T14:33:55;35.40;37.30
6948;DHT22;3513;47.664;9.162;2022-09-12T14:36:33;35.70;36.20
6948;DHT22;3513;47.664;9.162;2022-09-12T14:39:14;35.80;36.10
6948;DHT22;3513;47.664;9.162;2022-09-12T14:41:41;36.00;36.70
6948;DHT22;3513;47.664;9.162;2022-09-12T14:44:14;36.20;36.30
6948;DHT22;3513;47.664;9.162;2022-09-12T14:46:42;36.30;36.30
6948;DHT22;3513;47.664;9.162;2022-09-12T14:49:30;36.30;36.00
6948;DHT22;3513;47.664;9.162;2022-09-12T14:52:05;36.40;35.50
6948;DHT22;3513;47.664;9.162;2022-09-12T14:56:59;36.50;34.50
6948;DHT22;3513;47.664;9.162;2022-09-12T15:09:53;37.60;33.20
6948;DHT22;3513;47.664;9.162;2022-09-12T15:12:18;37.70;32.80
6948;DHT22;3513;47.664;9.162;2022-09-12T15:14:44;37.80;32.80
6948;DHT22;3513;47.664;9.162;2022-09-12T15:17:09;37.90;32.40
6948;DHT22;3513;47.664;9.162;2022-09-12T15:19:35;38.10;32.30
6948;DHT22;3513;47.664;9.162;2022-09-12T15:22:01;38.20;32.20
6948;DHT22;3513;47.664;9.162;2022-09-12T15:24:26;38.20;31.80
6948;DHT22;3513;47.664;9.162;2022-09-12T15:26:52;38.10;32.20
6948;DHT22;3513;47.664;9.162;2022-09-12T15:29:18;38.00;32.20
6948;DHT22;3513;47.664;9.162;2022-09-12T15:31:46;38.00;32.50
6948;DHT22;3513;47.664;9.162;2022-09-12T15:34:11;37.90;32.60
6948;DHT22;3513;47.664;9.162;2022-09-12T15:36:37;37.90;32.80
6948;DHT22;3513;47.664;9.162;2022-09-12T15:39:03;37.80;33.20
6948;DHT22;3513;47.664;9.162;2022-09-12T15:41:32;37.70;32.70
6948;DHT22;3513;47.664;9.162;2022-09-12T15:43:58;37.40;32.70
6948;DHT22;3513;47.664;9.162;2022-09-12T15:46:24;37.30;33.40
6948;DHT22;3513;47.664;9.162;2022-09-12T15:48:50;37.10;33.30
6948;DHT22;3513;47.664;9.162;2022-09-12T15:51:18;36.90;33.50
6948;DHT22;3513;47.664;9.162;2022-09-12T15:53:45;36.70;34.30
6948;DHT22;3513;47.664;9.162;2022-09-12T15:56:12;36.60;34.60
6948;DHT22;3513;47.664;9.162;2022-09-12T15:58:38;36.50;35.00
6948;DHT22;3513;47.664;9.162;2022-09-12T16:01:04;36.30;35.40
6948;DHT22;3513;47.664;9.162;2022-09-12T16:03:30;36.20;35.30
6948;DHT22;3513;47.664;9.162;2022-09-12T16:05:58;36.00;35.70
6948;DHT22;3513;47.664;9.162;2022-09-12T16:08:24;35.90;35.70
6948;DHT22;3513;47.664;9.162;2022-09-12T16:10:56;35.90;35.80
6948;DHT22;3513;47.664;9.162;2022-09-12T16:13:23;35.90;35.60
6948;DHT22;3513;47.664;9.162;2022-09-12T16:15:49;35.80;36.00
6948;DHT22;3513;47.664;9.162;2022-09-12T16:18:16;35.80;36.10
6948;DHT22;3513;47.664;9.162;2022-09-12T16:20:42;35.80;36.00
6948;DHT22;3513;47.664;9.162;2022-09-12T16:23:12;35.80;36.10
6948;DHT22;3513;47.664;9.162;2022-09-12T16:25:38;35.80;36.10
6948;DHT22;3513;47.664;9.162;2022-09-12T16:28:04;35.80;36.30
6948;DHT22;3513;47.664;9.162;2022-09-12T16:30:31;35.80;36.00
6948;DHT22;3513;47.664;9.162;2022-09-12T16:32:57;35.90;35.70
6948;DHT22;3513;47.664;9.162;2022-09-12T16:35:22;35.80;35.90
6948;DHT22;3513;47.664;9.162;2022-09-12T16:37:48;35.40;36.10
6948;DHT22;3513;47.664;9.162;2022-09-12T16:40:14;35.20;36.70
6948;DHT22;3513;47.664;9.162;2022-09-12T16:42:42;34.90;36.50
6948;DHT22;3513;47.664;9.162;2022-09-12T16:45:08;34.70;37.20
6948;DHT22;3513;47.664;9.162;2022-09-12T16:47:34;34.40;37.70
6948;DHT22;3513;47.664;9.162;2022-09-12T16:49:59;34.30;38.20
6948;DHT22;3513;47.664;9.162;2022-09-12T16:52:25;34.10;38.10
6948;DHT22;3513;47.664;9.162;2022-09-12T16:54:51;33.90;38.40
6948;DHT22;3513;47.664;9.162;2022-09-12T16:57:17;33.20;39.20
6948;DHT22;3513;47.664;9.162;2022-09-12T16:59:42;32.20;40.70
6948;DHT22;3513;47.664;9.162;2022-09-12T17:02:12;31.40;42.50
6948;DHT22;3513;47.664;9.162;2022-09-12T17:04:38;30.90;43.30
6948;DHT22;3513;47.664;9.162;2022-09-12T17:07:04;30.40;44.20
6948;DHT22;3513;47.664;9.162;2022-09-12T17:09:30;30.00;45.30
6948;DHT22;3513;47.664;9.162;2022-09-12T17:11:55;29.70;45.90
6948;DHT22;3513;47.664;9.162;2022-09-12T17:14:22;29.50;46.30
6948;DHT22;3513;47.664;9.162;2022-09-12T17:16:48;29.40;46.90
6948;DHT22;3513;47.664;9.162;2022-09-12T17:19:20;29.40;47.30
6948;DHT22;3513;47.664;9.162;2022-09-12T17:21:47;29.20;47.70
6948;DHT22;3513;47.664;9.162;2022-09-12T17:24:15;29.00;48.40
6948;DHT22;3513;47.664;9.162;2022-09-12T17:26:42;28.80;49.30
6948;DHT22;3513;47.664;9.162;2022-09-12T17:29:07;28.60;50.00
6948;DHT22;3513;47.664;9.162;2022-09-12T17:31:34;28.10;51.10
6948;DHT22;3513;47.664;9.162;2022-09-12T17:34:01;27.50;52.20
6948;DHT22;3513;47.664;9.162;2022-09-12T17:36:27;26.90;53.60
6948;DHT22;3513;47.664;9.162;2022-09-12T17:38:53;26.30;55.00
6948;DHT22;3513;47.664;9.162;2022-09-12T17:41:23;25.70;56.70
6948;DHT22;3513;47.664;9.162;2022-09-12T17:43:52;25.30;58.10
6948;DHT22;3513;47.664;9.162;2022-09-12T17:46:20;24.90;59.90
6948;DHT22;3513;47.664;9.162;2022-09-12T17:48:53;24.50;62.00
6948;DHT22;3513;47.664;9.162;2022-09-12T17:51:20;24.10;64.20
6948;DHT22;3513;47.664;9.162;2022-09-12T17:53:46;23.70;66.00
6948;DHT22;3513;47.664;9.162;2022-09-12T17:56:12;23.30;68.90
6948;DHT22;3513;47.664;9.162;2022-09-12T17:58:38;22.90;71.50
6948;DHT22;3513;47.664;9.162;2022-09-12T18:01:12;22.60;74.30
6948;DHT22;3513;47.664;9.162;2022-09-12T18:03:58;22.30;77.20
6948;DHT22;3513;47.664;9.162;2022-09-12T18:06:30;22.00;80.70
6948;DHT22;3513;47.664;9.162;2022-09-12T18:09:00;21.80;83.50
6948;DHT22;3513;47.664;9.162;2022-09-12T18:11:27;21.60;87.00
6948;DHT22;3513;47.664;9.162;2022-09-12T18:13:53;21.40;89.60
6948;DHT22;3513;47.664;9.162;2022-09-12T18:16:18;21.20;90.70
6948;DHT22;3513;47.664;9.162;2022-09-12T18:18:44;20.90;91.40
6948;DHT22;3513;47.664;9.162;2022-09-12T18:21:11;20.80;92.20
6948;DHT22;3513;47.664;9.162;2022-09-12T18:23:36;20.60;92.90
6948;DHT22;3513;47.664;9.162;2022-09-12T18:26:09;20.40;93.70
6948;DHT22;3513;47.664;9.162;2022-09-12T18:28:37;20.30;94.60
6948;DHT22;3513;47.664;9.162;2022-09-12T18:31:08;20.20;95.00
6948;DHT22;3513;47.664;9.162;2022-09-12T18:33:34;20.00;95.50
6948;DHT22;3513;47.664;9.162;2022-09-12T18:36:04;19.80;96.00
6948;DHT22;3513;47.664;9.162;2022-09-12T18:38:30;19.70;96.50
6948;DHT22;3513;47.664;9.162;2022-09-12T18:41:10;19.50;97.00
6948;DHT22;3513;47.664;9.162;2022-09-12T18:43:36;19.40;97.70
6948;DHT22;3513;47.664;9.162;2022-09-12T18:46:17;19.30;98.30
6948;DHT22;3513;47.664;9.162;2022-09-12T18:48:43;19.20;98.90
6948;DHT22;3513;47.664;9.162;2022-09-12T18:51:19;19.10;99.10
6948;DHT22;3513;47.664;9.162;2022-09-12T18:53:49;19.10;99.70
6948;DHT22;3513;47.664;9.162;2022-09-12T18:56:19;19.00;99.80
6948;DHT22;3513;47.664;9.162;2022-09-12T18:58:50;18.90;99.90
6948;DHT22;3513;47.664;9.162;2022-09-12T19:01:24;18.90;99.90